Have a Safe July 4th! 

Flight Track Log - Related Links

Times and Time Zones

All times are in EDT time to prevent confusion due to time zone crossing. See the PVL1910 flight status page for this flight to view local times or setup timezone preferences in your user account.

Time Position Orientation Groundspeed Altitude Reporting Facility
EDT Latitude Longitude Course Direction KTS MPH feet Rate Location/Type
Wed 03:03:00 PM 45.4667 -73.7000 215° Southwest 20 23 200  Level Montreal Center
Wed 03:04:00 PM 45.4500 -73.7167 215° Southwest 100 115 100 750 Descending Montreal Center
Wed 03:05:00 PM 45.4500 -73.7667 270° West 160 184 1,700 1,650 Climbing Montreal Center
Wed 03:06:00 PM 45.4833 -73.8167 314° West 180 207 3,400 1,500 Climbing Montreal Center
Wed 03:07:00 PM 45.5333 -73.8167 360° North 200 230 4,700 1,350 Climbing Montreal Center
Wed 03:08:00 PM 45.5833 -73.8333 347° North 200 230 6,100 1,350 Climbing Montreal Center
Wed 03:09:00 PM 45.6500 -73.7833 28° Northeast 230 265 7,400 1,250 Climbing Montreal Center
Wed 03:10:00 PM 45.7000 -73.7333 35° Northeast 230 265 8,600 1,200 Climbing Montreal Center
Wed 03:11:00 PM 45.7500 -73.6667 43° Northeast 240 276 9,800 1,150 Climbing Montreal Center
Wed 03:12:00 PM 45.8000 -73.6167 35° Northeast 240 276 10,900 1,100 Climbing Montreal Center
Wed 03:13:00 PM 45.8500 -73.5333 49° Northeast 240 276 12,000 1,000 Climbing Montreal Center
Wed 03:14:00 PM 45.9000 -73.4833 35° Northeast 240 276 12,900 900 Climbing Montreal Center
Wed 03:15:00 PM 45.9500 -73.4167 43° Northeast 250 288 13,800 800 Climbing Montreal Center
Wed 03:16:00 PM 46.0000 -73.3333 49° Northeast 250 288 14,500 700 Climbing Montreal Center
Wed 03:17:00 PM 46.0667 -73.2833 27° Northeast 250 288 15,200 700 Climbing Montreal Center
Wed 03:18:00 PM 46.1167 -73.2167 43° Northeast 260 299 15,900 650 Climbing Montreal Center
Wed 03:19:00 PM 46.1833 -73.1333 41° Northeast 260 299 16,500 700 Climbing Montreal Center
Wed 03:20:00 PM 46.2167 -73.0833 46° Northeast 260 299 17,300 800 Climbing Montreal Center
Wed 03:21:00 PM 46.2667 -73.0000 49° Northeast 260 299 18,100 800 Climbing Montreal Center
Wed 03:22:00 PM 46.3333 -72.9333 35° Northeast 260 299 18,900 700 Climbing Montreal Center
Wed 03:23:00 PM 46.3667 -72.8500 60° Northeast 260 299 19,500 650 Climbing Montreal Center
Wed 03:24:00 PM 46.4167 -72.7833 43° Northeast 250 288 20,200 650 Climbing Montreal Center
Wed 03:25:00 PM 46.4667 -72.6833 54° Northeast 260 299 20,800 250 Climbing Montreal Center
Wed 03:26:00 PM 46.5000 -72.6000 60° Northeast 270 311 20,700 -200 Descending Montreal Center
Wed 03:27:00 PM 46.5667 -72.5000 46° Northeast 290 334 20,400 -300 Descending Montreal Center
Wed 03:28:00 PM 46.6000 -72.4000 64° Northeast 310 357 20,100 -300 Descending Montreal Center
Wed 03:29:00 PM 46.6500 -72.2833 58° Northeast 320 368 19,800 -300 Descending Montreal Center
Wed 03:30:00 PM 46.7167 -72.1667 50° Northeast 320 368 19,500 -150 Descending Montreal Center
Wed 03:31:00 PM 46.7667 -72.0667 54° Northeast 320 368 19,500 650 Level Montreal Center
Wed 03:32:00 PM 46.8167 -71.9667 54° Northeast 300 345 20,800 1,200 Climbing Montreal Center
Wed 03:33:00 PM 46.8500 -71.9000 54° Northeast 260 299 21,900 650 Climbing Montreal Center
Wed 03:34:00 PM 46.9000 -71.8333 42° Northeast 250 288 22,100 450 Climbing Montreal Center
Wed 03:35:00 PM 46.9667 -71.7833 27° Northeast 260 299 22,800 450 Climbing Montreal Center
Wed 03:36:00 PM 47.0000 -71.6833 64° Northeast 260 299 23,000 100 Climbing Montreal Center
Wed 03:37:00 PM 47.0500 -71.5833 54° Northeast 280 322 23,000  Level Montreal Center
Wed 03:38:00 PM 47.1000 -71.4833 54° Northeast 290 334 23,000  Level Montreal Center
Wed 03:39:00 PM 47.1333 -71.3833 64° Northeast 300 345 23,000  Level Montreal Center
Wed 03:40:00 PM 47.1833 -71.2667 58° Northeast 300 345 23,000  Level Montreal Center
Wed 03:41:00 PM 47.2333 -71.1667 54° Northeast 310 357 23,000  Level Montreal Center
Wed 03:42:00 PM 47.2833 -71.0667 54° Northeast 310 357 23,000  Level Montreal Center
Wed 03:43:00 PM 47.3167 -70.9667 64° Northeast 310 357 23,000  Level Montreal Center
Wed 03:44:00 PM 47.3667 -70.8667 54° Northeast 310 357 23,000  Level Montreal Center
Wed 03:45:00 PM 47.4167 -70.7500 58° Northeast 310 357 23,000  Level Montreal Center
Wed 03:46:00 PM 47.4833 -70.6500 45° Northeast 310 357 23,000  Level Montreal Center
Wed 03:47:00 PM 47.5333 -70.5667 48° Northeast 310 357 23,000  Level Montreal Center
Wed 03:48:00 PM 47.6000 -70.4667 45° Northeast 310 357 23,000  Level Montreal Center
Wed 03:49:00 PM 47.6500 -70.3833 48° Northeast 310 357 23,000  Level Montreal Center
Wed 03:50:00 PM 47.7167 -70.2667 50° Northeast 310 357 23,000  Level Montreal Center
Wed 03:51:00 PM 47.7667 -70.1833 48° Northeast 310 357 23,000  Level Montreal Center
Wed 03:52:00 PM 47.8333 -70.1000 40° Northeast 310 357 23,000  Level Montreal Center
Wed 03:53:00 PM 47.9000 -70.0000 45° Northeast 320 368 23,000  Level Montreal Center
Wed 03:54:00 PM 47.9667 -69.9167 40° Northeast 310 357 23,000  Level Montreal Center
Wed 03:55:00 PM 48.0167 -69.8167 53° Northeast 310 357 23,000  Level Montreal Center
Wed 03:56:00 PM 48.0833 -69.7333 40° Northeast 320 368 23,000  Level Montreal Center
Wed 03:57:00 PM 48.1500 -69.6167 49° Northeast 320 368 23,000  Level Montreal Center
Wed 03:58:00 PM 48.2000 -69.5333 48° Northeast 320 368 23,000  Level Montreal Center
Wed 03:59:00 PM 48.2667 -69.4167 49° Northeast 320 368 23,000  Level Montreal Center
Wed 04:00:00 PM 48.3333 -69.3333 40° Northeast 320 368 23,000 -150 Level Montreal Center
Wed 04:01:00 PM 48.3833 -69.2333 53° Northeast 320 368 22,700 -400 Descending Montreal Center
Wed 04:02:00 PM 48.4500 -69.1500 40° Northeast 330 380 22,200 -450 Descending Montreal Center
Wed 04:03:00 PM 48.5333 -69.0333 43° Northeast 340 391 21,800 -400 Descending Montreal Center
Wed 04:04:00 PM 48.5833 -68.9167 57° Northeast 340 391 21,400 -300 Descending Montreal Center
Wed 04:05:00 PM 48.6500 -68.8333 40° Northeast 340 391 21,200 -200 Descending Montreal Center
Wed 04:06:00 PM 48.7167 -68.7167 49° Northeast 330 380 21,000 -100 Descending Montreal Center
Wed 04:07:00 PM 48.7833 -68.6167 45° Northeast 320 368 21,000  Level Montreal Center
Wed 04:08:00 PM 48.8500 -68.5167 45° Northeast 320 368 21,000  Level Montreal Center
Wed 04:09:00 PM 48.9000 -68.4333 48° Northeast 310 357 21,000  Level Montreal Center
Wed 04:10:00 PM 48.9500 -68.3333 53° Northeast 310 357 21,000  Level Montreal Center
Wed 04:11:00 PM 49.0167 -68.2333 45° Northeast 310 357 21,000  Level Montreal Center
Wed 04:12:00 PM 49.0833 -68.1333 44° Northeast 310 357 21,000  Level Montreal Center
Wed 04:13:00 PM 49.1333 -68.0333 53° Northeast 320 368 21,000  Level Montreal Center
Wed 04:14:00 PM 49.2000 -67.9500 39° Northeast 310 357 21,000 -50 Level Montreal Center
Wed 04:15:00 PM 49.2667 -67.8333 49° Northeast 310 357 20,900 -400 Descending Montreal Center
Wed 04:16:00 PM 49.3167 -67.7500 47° Northeast 320 368 20,200 -750 Descending Montreal Center
Wed 04:17:00 PM 49.4000 -67.6333 42° Northeast 330 380 19,400 -800 Descending Montreal Center
Wed 04:18:00 PM 49.4667 -67.5500 39° Northeast 340 391 18,600 -1,000 Descending Montreal Center
Wed 04:19:00 PM 49.5333 -67.4500 44° Northeast 340 391 17,400 -950 Descending Montreal Center
Wed 04:20:00 PM 49.6167 -67.3333 42° Northeast 340 391 16,700 -1,150 Descending Montreal Center
Wed 04:21:00 PM 49.6667 -67.2500 47° Northeast 340 391 15,100 -1,500 Descending Montreal Center
Wed 04:22:00 PM 49.7500 -67.1500 38° Northeast 330 380 13,700 -1,500 Descending Montreal Center
Wed 04:23:00 PM 49.8000 -67.0667 47° Northeast 320 368 12,100 -1,500 Descending Montreal Center
Wed 04:24:00 PM 49.8667 -66.9667 44° Northeast 310 357 10,700 -1,500 Descending Montreal Center
Wed 04:25:00 PM 49.9333 -66.8833 39° Northeast 300 345 9,100 -1,500 Descending Montreal Center
Wed 04:26:00 PM 49.9833 -66.8000 47° Northeast 300 345 7,700 -1,300 Descending Montreal Center
Wed 04:27:00 PM 50.0500 -66.7000 44° Northeast 300 345 6,500 -1,350 Descending Montreal Center
Wed 04:28:00 PM 50.1167 -66.6167 39° Northeast 290 334 5,000 -1,400 Descending Montreal Center
Wed 04:29:00 PM 50.1500 -66.5167 62° Northeast 260 299 3,700 -1,250 Descending Montreal Center
Wed 04:30:00 PM 50.1667 -66.4167 75° East 230 265 2,500 -1,100 Descending Montreal Center
Wed 04:31:00 PM 50.1833 -66.3333 73° East 190 219 1,500 -850 Descending Montreal Center
Wed 04:32:00 PM 50.2000 -66.2667 69° East 150 173 800 -650 Descending Montreal Center
Wed 04:33:00 PM 50.2167 -66.2500 33° Northeast 120 138 200 -600 Descending Montreal Center

Login

Don't have an account? Register now (free) for customized features, flight alerts, and more!